createdAt,value
2018-09-26T00:01:36.862Z,44.00
2018-09-26T00:04:08.645Z,44.00
2018-09-26T00:06:36.271Z,44.00
2018-09-26T00:09:06.092Z,43.90
2018-09-26T00:11:33.703Z,43.90
2018-09-26T00:14:01.296Z,43.90
2018-09-26T00:16:28.898Z,43.90
2018-09-26T00:18:56.499Z,43.90
2018-09-26T00:21:24.128Z,43.80
2018-09-26T00:23:51.915Z,43.80
2018-09-26T00:26:19.523Z,43.80
2018-09-26T00:28:47.129Z,43.80
2018-09-26T00:31:14.702Z,44.40
2018-09-26T00:33:42.305Z,43.70
2018-09-26T00:36:10.138Z,43.70
2018-09-26T00:38:37.736Z,43.80
2018-09-26T00:41:05.367Z,43.70
2018-09-26T00:43:32.979Z,43.70
2018-09-26T00:46:00.583Z,43.80
2018-09-26T00:48:28.221Z,43.70
2018-09-26T00:50:55.874Z,43.70
2018-09-26T00:53:23.505Z,43.70
2018-09-26T00:55:51.074Z,43.70
2018-09-26T00:58:18.786Z,43.70
2018-09-26T01:00:46.406Z,43.70
2018-09-26T01:03:14.072Z,43.70
2018-09-26T01:05:41.700Z,43.70
2018-09-26T01:08:09.290Z,43.70
2018-09-26T01:10:36.882Z,43.70
2018-09-26T01:13:04.706Z,43.70
2018-09-26T01:15:32.319Z,43.70
2018-09-26T01:17:59.944Z,43.70
2018-09-26T01:20:27.568Z,43.70
2018-09-26T01:22:55.185Z,43.70
2018-09-26T01:25:22.811Z,43.70
2018-09-26T01:27:50.436Z,43.70
2018-09-26T01:30:18.057Z,43.70
2018-09-26T01:32:45.691Z,43.60
2018-09-26T01:35:13.329Z,43.60
2018-09-26T01:37:40.945Z,43.60
2018-09-26T01:40:08.557Z,43.60
2018-09-26T01:42:36.153Z,43.60
2018-09-26T01:45:03.878Z,43.60
2018-09-26T01:47:31.545Z,43.60
2018-09-26T01:49:59.211Z,43.60
2018-09-26T01:52:26.833Z,43.60
2018-09-26T01:54:54.439Z,44.20
2018-09-26T01:57:22.102Z,43.60
2018-09-26T01:59:49.710Z,43.60
2018-09-26T02:02:17.289Z,43.60
2018-09-26T02:04:44.914Z,43.60
2018-09-26T02:07:12.539Z,43.60
2018-09-26T02:09:40.171Z,43.70
2018-09-26T02:12:07.910Z,43.70
2018-09-26T02:14:35.598Z,43.70
2018-09-26T02:17:03.265Z,43.70
2018-09-26T02:19:30.911Z,43.70
2018-09-26T02:21:58.564Z,43.60
2018-09-26T02:24:26.298Z,43.70
2018-09-26T02:26:53.930Z,43.60
2018-09-26T02:29:21.585Z,43.60
2018-09-26T02:31:49.212Z,43.80
2018-09-26T02:34:16.860Z,43.80
2018-09-26T02:36:44.502Z,43.70
2018-09-26T02:39:12.199Z,43.70
2018-09-26T02:41:39.910Z,43.80
2018-09-26T02:44:07.536Z,43.70
2018-09-26T02:46:35.166Z,43.70
2018-09-26T02:49:05.222Z,43.60
2018-09-26T02:51:33.575Z,43.60
2018-09-26T02:54:01.203Z,43.70
2018-09-26T02:56:28.829Z,43.60
2018-09-26T02:58:56.458Z,43.50
2018-09-26T03:01:24.115Z,43.50
2018-09-26T03:03:51.809Z,43.50
2018-09-26T03:06:19.493Z,43.50
2018-09-26T03:08:47.159Z,43.40
2018-09-26T03:11:15.060Z,43.40
2018-09-26T03:13:42.708Z,43.40
2018-09-26T03:16:10.323Z,43.30
2018-09-26T03:18:38.392Z,43.30
2018-09-26T03:21:06.014Z,43.30
2018-09-26T03:23:33.651Z,43.30
2018-09-26T03:26:01.297Z,43.30
2018-09-26T03:28:28.926Z,43.30
2018-09-26T03:30:56.728Z,43.30
2018-09-26T03:33:24.393Z,43.30
2018-09-26T03:35:52.158Z,43.30
2018-09-26T03:38:19.809Z,43.20
2018-09-26T03:40:47.437Z,43.30
2018-09-26T03:43:15.127Z,43.30
2018-09-26T03:45:42.768Z,43.30
2018-09-26T03:48:10.506Z,43.30
2018-09-26T03:50:38.143Z,43.20
2018-09-26T03:53:05.785Z,43.30
2018-09-26T03:55:33.442Z,43.20
2018-09-26T03:58:01.031Z,43.20
2018-09-26T04:00:28.698Z,43.80
2018-09-26T04:02:56.445Z,43.20
2018-09-26T04:05:24.236Z,43.20
2018-09-26T04:07:51.953Z,43.10
2018-09-26T04:10:19.613Z,43.20
2018-09-26T04:12:47.459Z,43.20
2018-09-26T04:15:15.101Z,43.10
2018-09-26T04:17:42.731Z,43.20
2018-09-26T04:20:10.351Z,43.10
2018-09-26T04:25:12.246Z,43.50
2018-09-26T04:27:39.993Z,43.40
2018-09-26T04:30:07.667Z,44.00
2018-09-26T04:32:35.334Z,43.40
2018-09-26T04:35:02.988Z,43.30
2018-09-26T04:37:30.791Z,43.20
2018-09-26T04:39:58.452Z,43.40
2018-09-26T04:42:26.066Z,43.40
2018-09-26T04:44:53.699Z,43.40
2018-09-26T04:47:21.323Z,43.50
2018-09-26T04:49:48.941Z,43.40
2018-09-26T04:52:16.566Z,43.40
2018-09-26T04:54:44.196Z,43.50
2018-09-26T04:57:11.945Z,43.50
2018-09-26T04:59:39.570Z,43.50
2018-09-26T05:02:07.200Z,43.50
2018-09-26T05:04:34.826Z,43.30
2018-09-26T05:07:02.455Z,39.20
2018-09-26T05:09:30.358Z,37.50
2018-09-26T05:11:57.986Z,40.80
2018-09-26T05:14:25.655Z,41.20
2018-09-26T05:16:53.316Z,40.90
2018-09-26T05:19:20.970Z,41.50
2018-09-26T05:21:48.600Z,40.80
2018-09-26T05:24:16.301Z,40.80
2018-09-26T05:26:44.123Z,40.70
2018-09-26T05:29:11.788Z,40.80
2018-09-26T05:31:39.450Z,40.70
2018-09-26T05:34:12.825Z,40.80
2018-09-26T05:36:41.220Z,41.50
2018-09-26T05:39:09.728Z,40.80
2018-09-26T05:41:37.837Z,40.90
2018-09-26T05:44:05.451Z,41.00
2018-09-26T05:46:33.086Z,40.80
2018-09-26T05:49:00.721Z,41.00
2018-09-26T05:51:28.355Z,41.00
2018-09-26T05:53:56.390Z,41.10
2018-09-26T05:56:24.055Z,41.40
2018-09-26T05:58:51.698Z,41.10
2018-09-26T06:01:19.370Z,41.10
2018-09-26T06:03:47.036Z,41.10
2018-09-26T06:06:14.657Z,41.10
2018-09-26T06:08:42.331Z,41.20
2018-09-26T06:11:09.972Z,41.10
2018-09-26T06:13:37.630Z,41.10
2018-09-26T06:16:05.265Z,41.20
2018-09-26T06:18:32.909Z,41.30
2018-09-26T06:21:00.554Z,41.20
2018-09-26T06:23:28.291Z,41.20
2018-09-26T06:25:56.017Z,41.30
2018-09-26T06:28:23.670Z,41.30
2018-09-26T06:30:51.308Z,41.30
2018-09-26T06:33:18.973Z,41.40
2018-09-26T06:35:46.620Z,41.50
2018-09-26T06:38:14.270Z,41.40
2018-09-26T06:40:41.938Z,41.50
2018-09-26T06:43:10.114Z,41.50
2018-09-26T06:45:37.858Z,41.50
2018-09-26T06:48:06.073Z,41.60
2018-09-26T06:50:33.879Z,41.60
2018-09-26T06:53:01.555Z,41.60
2018-09-26T06:55:29.455Z,41.60
2018-09-26T06:57:57.100Z,41.70
2018-09-26T07:00:24.944Z,41.60
2018-09-26T07:02:52.650Z,41.70
2018-09-26T07:05:20.319Z,41.70
2018-09-26T07:07:47.942Z,41.70
2018-09-26T07:10:15.591Z,41.70
2018-09-26T07:12:43.231Z,41.70
2018-09-26T07:15:10.929Z,41.60
2018-09-26T07:17:38.584Z,41.70
2018-09-26T07:20:06.260Z,41.70
2018-09-26T07:22:33.905Z,41.70
2018-09-26T07:25:01.552Z,41.70
2018-09-26T07:27:29.173Z,41.70
2018-09-26T07:29:56.809Z,41.70
2018-09-26T07:32:24.464Z,41.60
2018-09-26T07:34:52.176Z,41.70
2018-09-26T07:37:19.826Z,41.70
2018-09-26T07:39:47.459Z,41.70
2018-09-26T07:42:15.135Z,41.70
2018-09-26T07:44:42.798Z,41.70
2018-09-26T07:47:10.435Z,41.60
2018-09-26T07:49:38.082Z,41.70
2018-09-26T07:52:05.747Z,41.70
2018-09-26T07:54:33.372Z,41.70
2018-09-26T07:57:01.034Z,41.70
2018-09-26T07:59:28.669Z,41.70
2018-09-26T08:01:56.302Z,41.70
2018-09-26T08:04:24.006Z,41.70
2018-09-26T08:06:51.676Z,41.70
2018-09-26T08:09:21.182Z,41.70
2018-09-26T08:11:48.857Z,41.70
2018-09-26T08:14:16.486Z,41.70
2018-09-26T08:16:44.165Z,41.70
2018-09-26T08:19:16.276Z,41.70
2018-09-26T08:21:43.965Z,41.70
2018-09-26T08:24:11.634Z,41.70
2018-09-26T08:26:39.415Z,41.70
2018-09-26T08:29:07.042Z,41.70
2018-09-26T08:31:34.729Z,42.30
2018-09-26T08:34:02.400Z,41.70
2018-09-26T08:36:30.045Z,41.70
2018-09-26T08:38:57.713Z,41.70
2018-09-26T08:41:25.351Z,41.70
2018-09-26T08:43:53.005Z,41.70
2018-09-26T08:46:20.731Z,41.70
2018-09-26T08:48:48.447Z,41.70
2018-09-26T08:51:16.033Z,41.70
2018-09-26T08:53:43.716Z,41.70
2018-09-26T08:56:11.448Z,41.70
2018-09-26T08:58:39.077Z,41.70
2018-09-26T09:01:11.019Z,41.70
2018-09-26T09:03:38.660Z,41.70
2018-09-26T09:06:06.357Z,42.40
2018-09-26T09:08:34.211Z,41.70
2018-09-26T09:11:01.909Z,41.80
2018-09-26T09:13:29.558Z,41.80
2018-09-26T09:15:57.158Z,41.90
2018-09-26T09:18:24.812Z,41.90
2018-09-26T09:20:52.490Z,42.00
2018-09-26T09:23:20.344Z,42.20
2018-09-26T09:25:48.013Z,42.20
2018-09-26T09:28:15.798Z,42.30
2018-09-26T09:30:43.443Z,42.20
2018-09-26T09:33:11.090Z,42.20
2018-09-26T09:35:38.754Z,42.20
2018-09-26T09:38:06.401Z,42.20
2018-09-26T09:40:34.005Z,42.20
2018-09-26T09:43:01.620Z,42.20
2018-09-26T09:45:29.305Z,41.90
2018-09-26T09:47:56.966Z,42.20
2018-09-26T09:50:24.774Z,42.20
2018-09-26T09:52:52.374Z,42.20
2018-09-26T09:55:20.002Z,42.20
2018-09-26T09:57:47.671Z,42.30
2018-09-26T10:00:15.337Z,42.20
2018-09-26T10:02:43.064Z,42.20
2018-09-26T10:05:10.668Z,42.20
2018-09-26T10:07:38.381Z,42.20
2018-09-26T10:10:06.005Z,42.20
2018-09-26T10:12:33.703Z,42.20
2018-09-26T10:15:01.338Z,42.20
2018-09-26T10:17:29.047Z,42.20
2018-09-26T10:19:56.668Z,42.20
2018-09-26T10:22:24.278Z,42.20
2018-09-26T10:24:51.992Z,42.20
2018-09-26T10:27:19.739Z,42.20
2018-09-26T10:29:47.387Z,42.30
2018-09-26T10:32:15.112Z,42.20
2018-09-26T10:34:44.314Z,42.20
2018-09-26T10:37:11.929Z,42.20
2018-09-26T10:39:39.571Z,42.30
2018-09-26T10:42:07.213Z,42.30
2018-09-26T10:44:34.881Z,42.20
2018-09-26T10:47:02.546Z,42.20
2018-09-26T10:49:31.041Z,42.20
2018-09-26T10:51:58.743Z,42.20
2018-09-26T10:54:26.401Z,42.20
2018-09-26T10:56:54.023Z,42.20
2018-09-26T10:59:21.667Z,42.30
2018-09-26T11:01:51.272Z,42.30
2018-09-26T11:04:18.983Z,42.20
2018-09-26T11:06:46.597Z,42.30
2018-09-26T11:09:14.229Z,42.20
2018-09-26T11:11:41.889Z,42.10
2018-09-26T11:14:09.564Z,42.10
2018-09-26T11:16:37.185Z,42.20
2018-09-26T11:19:12.964Z,42.20
2018-09-26T11:21:41.122Z,42.20
2018-09-26T11:24:08.792Z,42.10
2018-09-26T11:26:36.543Z,42.20
2018-09-26T11:29:04.172Z,42.20
2018-09-26T11:31:31.966Z,42.20
2018-09-26T11:33:59.648Z,42.10
2018-09-26T11:36:27.321Z,42.10
2018-09-26T11:38:54.946Z,42.10
2018-09-26T11:41:22.861Z,42.20
2018-09-26T11:43:50.489Z,42.70
2018-09-26T11:46:18.201Z,42.10
2018-09-26T11:48:45.744Z,42.20
2018-09-26T11:51:13.404Z,42.20
2018-09-26T11:53:41.032Z,42.20
2018-09-26T11:56:08.789Z,42.20
2018-09-26T11:58:36.418Z,42.20
2018-09-26T12:01:04.074Z,42.20
2018-09-26T12:03:31.712Z,42.20
2018-09-26T12:06:02.995Z,42.10
2018-09-26T12:08:30.592Z,42.10
2018-09-26T12:10:58.259Z,42.10
2018-09-26T12:13:25.938Z,42.10
2018-09-26T12:15:53.589Z,42.10
2018-09-26T12:18:21.288Z,42.20
2018-09-26T12:20:48.908Z,42.20
2018-09-26T12:23:16.619Z,42.20
2018-09-26T12:25:44.265Z,42.20
2018-09-26T12:28:11.918Z,42.20
2018-09-26T12:30:39.581Z,42.30
2018-09-26T12:33:07.317Z,42.40
2018-09-26T12:35:34.962Z,42.50
2018-09-26T12:38:02.656Z,42.60
2018-09-26T12:40:30.299Z,42.60
2018-09-26T12:42:57.979Z,42.60
2018-09-26T12:45:26.084Z,42.70
2018-09-26T12:47:53.738Z,42.60
2018-09-26T12:50:21.372Z,42.60
2018-09-26T12:52:48.993Z,42.60
2018-09-26T12:55:16.670Z,42.60
2018-09-26T12:57:44.383Z,42.60
2018-09-26T13:00:12.093Z,42.60
2018-09-26T13:02:39.749Z,42.60
2018-09-26T13:05:07.351Z,42.50
2018-09-26T13:07:34.997Z,42.50
2018-09-26T13:10:02.794Z,42.50
2018-09-26T13:12:30.428Z,42.50
2018-09-26T13:14:58.053Z,42.50
2018-09-26T13:17:25.684Z,42.40
2018-09-26T13:19:53.401Z,42.40
2018-09-26T13:22:21.108Z,42.40
2018-09-26T13:24:48.676Z,42.30
2018-09-26T13:27:16.308Z,42.30
2018-09-26T13:29:43.964Z,42.30
2018-09-26T13:32:11.655Z,42.20
2018-09-26T13:34:39.321Z,42.30
2018-09-26T13:37:06.954Z,42.20
2018-09-26T13:39:34.604Z,42.20
2018-09-26T13:42:02.206Z,42.20
2018-09-26T13:44:30.242Z,42.20
2018-09-26T13:46:57.939Z,42.20
2018-09-26T13:49:25.625Z,42.20
2018-09-26T13:51:53.288Z,42.20
2018-09-26T13:54:21.119Z,42.20
2018-09-26T13:56:48.874Z,42.20
2018-09-26T13:59:16.530Z,42.20
2018-09-26T14:01:44.169Z,42.20
2018-09-26T14:04:11.840Z,42.20
2018-09-26T14:06:39.466Z,42.20
2018-09-26T14:09:07.101Z,42.60
2018-09-26T14:11:34.737Z,42.50
2018-09-26T14:14:02.359Z,42.50
2018-09-26T14:16:30.127Z,42.50
2018-09-26T14:18:57.778Z,42.40
2018-09-26T14:21:37.099Z,42.40
2018-09-26T14:24:05.035Z,42.30
2018-09-26T14:26:32.763Z,42.40
2018-09-26T14:29:00.585Z,43.00
2018-09-26T14:31:28.607Z,42.20
2018-09-26T14:33:57.648Z,42.20
2018-09-26T14:36:25.664Z,42.20
2018-09-26T14:38:53.400Z,42.20
2018-09-26T14:41:21.124Z,42.20
2018-09-26T14:43:48.823Z,42.20
2018-09-26T14:46:16.537Z,42.20
2018-09-26T14:48:44.433Z,42.80
2018-09-26T14:51:12.157Z,42.20
2018-09-26T14:53:39.870Z,42.20
2018-09-26T14:56:12.305Z,42.20
2018-09-26T14:58:40.208Z,42.20
2018-09-26T15:01:08.011Z,42.20
2018-09-26T15:03:36.619Z,42.20
2018-09-26T15:06:04.328Z,42.20
2018-09-26T15:08:32.118Z,42.20
2018-09-26T15:10:59.808Z,42.20
2018-09-26T15:13:27.511Z,42.70
2018-09-26T15:15:55.203Z,42.20
2018-09-26T15:18:23.031Z,42.20
2018-09-26T15:20:50.671Z,42.20
2018-09-26T15:23:18.454Z,42.20
2018-09-26T15:25:46.376Z,42.20
2018-09-26T15:28:14.328Z,42.20
2018-09-26T15:30:44.229Z,42.20
2018-09-26T15:33:12.770Z,42.20
2018-09-26T15:35:40.602Z,42.20
2018-09-26T15:38:08.394Z,42.20
2018-09-26T15:40:36.273Z,42.20
2018-09-26T15:43:03.975Z,42.20
2018-09-26T15:45:32.800Z,42.20
2018-09-26T15:48:00.594Z,42.20
2018-09-26T15:50:28.259Z,42.20
2018-09-26T15:52:56.026Z,42.20
2018-09-26T15:55:23.741Z,42.20
2018-09-26T15:57:51.620Z,42.20
2018-09-26T16:00:19.449Z,42.20
2018-09-26T16:02:47.244Z,42.30
2018-09-26T16:05:14.922Z,42.30
2018-09-26T16:07:42.555Z,42.30
2018-09-26T16:10:11.551Z,42.20
2018-09-26T16:12:39.309Z,42.20
2018-09-26T16:15:07.026Z,42.20
2018-09-26T16:17:35.047Z,42.20
2018-09-26T16:20:02.923Z,42.20
2018-09-26T16:22:30.669Z,42.20
2018-09-26T16:24:58.371Z,42.40
2018-09-26T16:27:29.115Z,42.20
2018-09-26T16:29:56.765Z,42.20
2018-09-26T16:32:24.685Z,42.20
2018-09-26T16:34:54.329Z,42.20
2018-09-26T16:37:22.199Z,42.60
2018-09-26T16:39:49.999Z,42.50
2018-09-26T16:42:17.652Z,42.90
2018-09-26T16:44:45.427Z,42.50
2018-09-26T16:47:13.048Z,42.60
2018-09-26T16:49:40.686Z,42.50
2018-09-26T16:52:08.330Z,42.50
2018-09-26T16:54:36.029Z,42.50
2018-09-26T16:57:03.664Z,42.50
2018-09-26T16:59:31.405Z,42.50
2018-09-26T17:01:59.061Z,42.30
2018-09-26T17:04:26.752Z,42.30
2018-09-26T17:06:54.498Z,42.30
2018-09-26T17:09:22.149Z,42.40
2018-09-26T17:11:49.958Z,42.50
2018-09-26T17:14:17.768Z,42.40
2018-09-26T17:16:45.425Z,42.50
2018-09-26T17:19:13.170Z,42.60
2018-09-26T17:21:40.824Z,42.70
2018-09-26T17:24:08.539Z,42.70
2018-09-26T17:26:36.180Z,42.70
2018-09-26T17:29:03.912Z,43.00
2018-09-26T17:31:31.613Z,42.60
2018-09-26T17:33:59.351Z,42.60
2018-09-26T17:36:27.100Z,42.50
2018-09-26T17:38:54.763Z,42.60
2018-09-26T17:41:22.466Z,42.70
2018-09-26T17:43:50.093Z,42.80
2018-09-26T17:46:17.849Z,42.70
2018-09-26T17:48:45.659Z,42.60
2018-09-26T17:51:13.440Z,42.70
2018-09-26T17:53:41.236Z,43.20
2018-09-26T17:56:09.020Z,42.60
2018-09-26T17:58:37.058Z,43.10
2018-09-26T18:01:05.549Z,42.50
2018-09-26T18:03:33.922Z,42.50
2018-09-26T18:06:04.406Z,42.50
2018-09-26T18:08:32.984Z,42.40
2018-09-26T18:11:02.544Z,42.40
2018-09-26T18:13:31.013Z,42.40
2018-09-26T18:16:01.537Z,42.40
2018-09-26T18:18:29.885Z,42.30
2018-09-26T18:21:03.187Z,42.30
2018-09-26T18:23:31.347Z,42.30
2018-09-26T18:25:59.100Z,42.30
2018-09-26T18:28:26.815Z,42.30
2018-09-26T18:30:54.544Z,42.30
2018-09-26T18:33:22.248Z,42.30
2018-09-26T18:35:50.262Z,42.30
2018-09-26T18:38:18.136Z,42.20
2018-09-26T18:40:46.066Z,42.20
2018-09-26T18:43:14.145Z,42.20
2018-09-26T18:45:41.855Z,42.20
2018-09-26T18:48:09.585Z,42.20
2018-09-26T18:50:37.300Z,42.20
2018-09-26T18:53:04.983Z,42.20
2018-09-26T18:55:32.659Z,42.20
2018-09-26T18:58:00.431Z,42.20
2018-09-26T19:00:28.076Z,42.30
2018-09-26T19:02:55.816Z,42.20
2018-09-26T19:05:23.459Z,42.80
2018-09-26T19:07:51.132Z,42.20
2018-09-26T19:10:18.881Z,42.20
2018-09-26T19:12:46.553Z,42.20
2018-09-26T19:15:14.180Z,42.20
2018-09-26T19:17:41.930Z,42.20
2018-09-26T19:20:09.593Z,42.20
2018-09-26T19:22:38.202Z,42.20
2018-09-26T19:25:05.946Z,42.20
2018-09-26T19:27:33.644Z,42.20
2018-09-26T19:30:01.329Z,42.30
2018-09-26T19:32:28.950Z,42.20
2018-09-26T19:34:56.632Z,42.20
2018-09-26T19:37:24.273Z,42.20
2018-09-26T19:39:52.011Z,42.20
2018-09-26T19:42:19.776Z,42.20
2018-09-26T19:44:47.447Z,42.20
2018-09-26T19:47:15.128Z,42.20
2018-09-26T19:49:43.000Z,42.20
2018-09-26T19:52:10.781Z,42.20
2018-09-26T19:54:38.443Z,42.20
2018-09-26T19:57:06.318Z,42.10
2018-09-26T19:59:33.971Z,42.20
2018-09-26T20:02:01.730Z,42.10
2018-09-26T20:04:29.330Z,42.10
2018-09-26T20:06:56.949Z,42.10
2018-09-26T20:09:24.688Z,41.80
2018-09-26T20:11:52.321Z,42.20
2018-09-26T20:14:19.944Z,42.20
2018-09-26T20:16:47.596Z,42.20
2018-09-26T20:19:15.305Z,42.20
2018-09-26T20:21:42.939Z,42.20
2018-09-26T20:24:10.581Z,42.20
2018-09-26T20:26:38.345Z,42.80
2018-09-26T20:29:05.991Z,42.20
2018-09-26T20:31:33.585Z,42.20
2018-09-26T20:34:01.200Z,42.20
2018-09-26T20:36:28.980Z,42.20
2018-09-26T20:38:56.682Z,42.20
2018-09-26T20:41:24.444Z,42.20
2018-09-26T20:43:52.236Z,42.20
2018-09-26T20:46:19.957Z,42.20
2018-09-26T20:48:47.592Z,42.20
2018-09-26T20:51:15.225Z,42.10
2018-09-26T20:53:42.881Z,42.10
2018-09-26T20:56:10.521Z,42.10
2018-09-26T20:58:38.496Z,42.10
2018-09-26T21:01:06.429Z,42.10
2018-09-26T21:03:34.076Z,42.10
2018-09-26T21:06:01.836Z,42.10
2018-09-26T21:08:29.674Z,42.10
2018-09-26T21:10:57.461Z,42.10
2018-09-26T21:13:25.177Z,42.10
2018-09-26T21:15:52.812Z,42.10
2018-09-26T21:18:20.657Z,42.00
2018-09-26T21:20:48.279Z,42.00
2018-09-26T21:23:15.941Z,42.00
2018-09-26T21:25:43.541Z,42.10
2018-09-26T21:28:11.182Z,42.00
2018-09-26T21:30:38.805Z,42.00
2018-09-26T21:33:06.451Z,42.00
2018-09-26T21:35:34.075Z,42.00
2018-09-26T21:38:01.700Z,42.00
2018-09-26T21:40:29.337Z,42.60
2018-09-26T21:42:56.972Z,42.00
2018-09-26T21:45:24.616Z,42.00
2018-09-26T21:47:52.258Z,41.90
2018-09-26T21:50:19.997Z,41.90
2018-09-26T21:52:47.659Z,41.90
2018-09-26T21:55:15.335Z,41.90
2018-09-26T21:57:44.084Z,41.90
2018-09-26T22:00:11.748Z,41.90
2018-09-26T22:02:39.398Z,41.90
2018-09-26T22:05:07.075Z,41.90
2018-09-26T22:07:34.704Z,41.90
2018-09-26T22:10:02.352Z,41.90
2018-09-26T22:12:30.090Z,41.90
2018-09-26T22:14:57.731Z,41.90
2018-09-26T22:17:25.352Z,41.90
2018-09-26T22:19:52.977Z,41.90
2018-09-26T22:22:20.824Z,41.90
2018-09-26T22:24:48.545Z,41.90
2018-09-26T22:27:16.163Z,41.90
2018-09-26T22:29:43.852Z,41.90
2018-09-26T22:32:11.478Z,41.80
2018-09-26T22:34:39.119Z,41.80
2018-09-26T22:37:06.761Z,41.80
2018-09-26T22:39:34.419Z,41.70
2018-09-26T22:42:02.105Z,41.80
2018-09-26T22:44:29.805Z,42.30
2018-09-26T22:46:57.482Z,41.70
2018-09-26T22:49:25.156Z,41.70
2018-09-26T22:51:52.796Z,41.70
2018-09-26T22:54:20.424Z,41.70
2018-09-26T22:56:48.070Z,41.70
2018-09-26T22:59:15.699Z,41.70
2018-09-26T23:01:43.332Z,41.70
2018-09-26T23:04:10.969Z,41.70
2018-09-26T23:06:38.599Z,41.70
2018-09-26T23:09:07.640Z,41.70
2018-09-26T23:11:35.263Z,41.70
2018-09-26T23:14:02.909Z,41.70
2018-09-26T23:16:30.531Z,41.70
2018-09-26T23:18:58.162Z,41.70
2018-09-26T23:21:25.811Z,41.70
2018-09-26T23:23:53.565Z,41.70
2018-09-26T23:26:21.202Z,41.70
2018-09-26T23:28:48.875Z,41.70
2018-09-26T23:31:16.500Z,41.70
2018-09-26T23:33:44.094Z,41.70
2018-09-26T23:36:11.696Z,41.60
2018-09-26T23:38:39.506Z,41.70
2018-09-26T23:41:07.158Z,41.70
2018-09-26T23:43:34.812Z,41.60
2018-09-26T23:46:02.449Z,41.70
2018-09-26T23:48:30.076Z,41.60
2018-09-26T23:50:57.712Z,41.70
2018-09-26T23:53:25.417Z,41.60
2018-09-26T23:55:53.060Z,41.70
2018-09-26T23:58:20.793Z,41.60
